Terminal Aerodrome Forecast
Issued by NWS Wilmington, OH

Current Version | Previous Version | Graphics & Text | Print | Product List | Glossary On
Versions: 1 2 3 4 5 6 7 8 9 10 11 12 13 14 15 16 17 18 19
000
FTUS41 KILN 161133
TAFDAY
TAF
KDAY 161133Z 1612/1712 17005KT P6SM SCT200
     FM161800 16007KT P6SM BKN045
     FM162300 15006KT P6SM BKN080
     FM170600 15006KT P6SM VCTS BKN050CB=

USA.gov is the U.S. government's official web portal to all federal, state and local government web resources and services.